Time;durP1;ratioP1;P1;durP2;ratioP2;P2;SDS_P1;SDS_P2;PMS_P1;PMS_P2;Temp;Humidity;BMP_temperature;BMP_pressure;BME280_temperature;BME280_humidity;BME280_pressure;Samples;Min_cycle;Max_cycle;Signal;HPM_P1;HPM_P2
2022/06/15 00:02:14;;;;;;;3.33;1.02;;;;;;;;;;5040865;28;20208;-68
2022/06/15 00:04:43;;;;;;;1.15;0.90;;;;;;;;;;5043835;28;20215;-68
2022/06/15 00:07:10;;;;;;;0.77;0.77;;;;;;;;;;5042617;28;20208;-68
2022/06/15 00:09:37;;;;;;;2.22;0.82;;;;;;;;;;5042827;28;20703;-68
2022/06/15 00:12:06;;;;;;;1.75;0.82;;;;;;;;;;5043276;28;20250;-68
2022/06/15 00:14:33;;;;;;;0.95;0.80;;;;;;;;;;5045159;28;20208;-68
2022/06/15 00:17:00;;;;;;;0.95;0.95;;;;;;;;;;5045302;28;20784;-69
2022/06/15 00:19:27;;;;;;;2.17;0.85;;;;;;;;;;5048759;28;20232;-68
2022/06/15 00:21:55;;;;;;;4.78;0.80;;;;;;;;;;5045656;28;20258;-68
2022/06/15 00:24:23;;;;;;;0.90;0.90;;;;;;;;;;5044455;28;20208;-69
2022/06/15 00:26:51;;;;;;;2.75;1.00;;;;;;;;;;5043641;28;20208;-68
2022/06/15 00:29:18;;;;;;;0.80;0.80;;;;;;;;;;5045425;28;20203;-68
2022/06/15 00:31:45;;;;;;;0.82;0.82;;;;;;;;;;5050778;28;20285;-69
2022/06/15 00:34:12;;;;;;;0.70;0.70;;;;;;;;;;5050900;28;20601;-68
2022/06/15 00:36:39;;;;;;;0.88;0.88;;;;;;;;;;5051419;28;20617;-69
2022/06/15 00:39:08;;;;;;;0.90;0.90;;;;;;;;;;5051110;28;20219;-69
2022/06/15 00:41:38;;;;;;;1.65;0.80;;;;;;;;;;5050777;28;20212;-68
2022/06/15 00:44:20;;;;;;;1.67;0.80;;;;;;;;;;5050473;28;20211;-68
2022/06/15 00:46:48;;;;;;;0.80;0.80;;;;;;;;;;5050041;28;20253;-68
2022/06/15 00:49:23;;;;;;;0.80;0.80;;;;;;;;;;5050660;28;20211;-68
2022/06/15 00:51:52;;;;;;;1.48;0.80;;;;;;;;;;5050747;28;20219;-69
2022/06/15 00:54:21;;;;;;;0.65;0.65;;;;;;;;;;5049778;28;20231;-69
2022/06/15 00:56:49;;;;;;;1.98;0.80;;;;;;;;;;5050272;28;20231;-68
2022/06/15 00:59:18;;;;;;;0.80;0.80;;;;;;;;;;5050138;28;20728;-69
2022/06/15 01:01:45;;;;;;;1.95;0.90;;;;;;;;;;5050480;28;20196;-69
2022/06/15 01:04:12;;;;;;;0.80;0.80;;;;;;;;;;5050674;28;20199;-69
2022/06/15 01:06:42;;;;;;;0.88;0.73;;;;;;;;;;5050645;28;20218;-68
2022/06/15 01:09:13;;;;;;;1.38;0.90;;;;;;;;;;5050804;28;20269;-68
2022/06/15 01:11:48;;;;;;;1.58;0.90;;;;;;;;;;5050195;28;20235;-68
2022/06/15 01:14:25;;;;;;;0.70;0.70;;;;;;;;;;5049290;28;20273;-68
2022/06/15 01:16:55;;;;;;;1.60;0.70;;;;;;;;;;5049234;28;20211;-68
2022/06/15 01:19:42;;;;;;;1.02;0.98;;;;;;;;;;5050464;28;20696;-68
2022/06/15 01:22:17;;;;;;;2.38;1.00;;;;;;;;;;5041349;28;20207;-69
2022/06/15 01:25:01;;;;;;;1.00;1.00;;;;;;;;;;5038291;28;20214;-69
2022/06/15 01:27:38;;;;;;;1.20;1.10;;;;;;;;;;5049593;28;20207;-69
2022/06/15 01:30:22;;;;;;;1.33;1.23;;;;;;;;;;5050028;28;20635;-68
2022/06/15 01:32:57;;;;;;;0.90;0.90;;;;;;;;;;5049477;28;20231;-68
2022/06/15 01:35:27;;;;;;;3.65;1.05;;;;;;;;;;5050017;28;20219;-68
2022/06/15 01:37:58;;;;;;;0.98;0.88;;;;;;;;;;5050133;28;20216;-68
2022/06/15 01:40:27;;;;;;;1.00;1.00;;;;;;;;;;5049846;28;20229;-68
2022/06/15 01:42:56;;;;;;;0.93;0.85;;;;;;;;;;5049606;28;20229;-68
2022/06/15 01:45:32;;;;;;;0.88;0.88;;;;;;;;;;5049948;28;20203;-68
2022/06/15 01:48:03;;;;;;;0.82;0.82;;;;;;;;;;5049994;28;20199;-68
2022/06/15 01:50:33;;;;;;;1.23;1.13;;;;;;;;;;5050170;28;20349;-68
2022/06/15 01:53:03;;;;;;;3.92;0.93;;;;;;;;;;5049099;28;20224;-68
2022/06/15 01:55:33;;;;;;;0.95;0.95;;;;;;;;;;5047515;28;20232;-69
2022/06/15 01:58:15;;;;;;;0.85;0.85;;;;;;;;;;5049421;28;20646;-68
2022/06/15 02:00:44;;;;;;;0.98;0.95;;;;;;;;;;5048454;28;20222;-68
2022/06/15 02:03:16;;;;;;;0.98;0.98;;;;;;;;;;5049343;28;20285;-68
2022/06/15 02:05:45;;;;;;;0.95;0.95;;;;;;;;;;5049315;28;20208;-68
2022/06/15 02:08:16;;;;;;;1.10;1.10;;;;;;;;;;5049402;28;20269;-69
2022/06/15 02:10:48;;;;;;;1.00;1.00;;;;;;;;;;5048869;28;20306;-68
2022/06/15 02:13:18;;;;;;;1.08;1.00;;;;;;;;;;5049183;28;20236;-68
2022/06/15 02:15:47;;;;;;;1.13;1.00;;;;;;;;;;5048722;28;20289;-68
2022/06/15 02:18:18;;;;;;;1.40;0.80;;;;;;;;;;5049060;28;20687;-68
2022/06/15 02:20:48;;;;;;;0.90;0.90;;;;;;;;;;5049531;28;20814;-68
2022/06/15 02:23:16;;;;;;;0.95;0.95;;;;;;;;;;5048954;28;20261;-68
2022/06/15 02:25:45;;;;;;;1.02;0.88;;;;;;;;;;5048657;28;20208;-68
2022/06/15 02:28:12;;;;;;;1.85;0.90;;;;;;;;;;5040433;28;20204;-68
2022/06/15 02:30:41;;;;;;;0.90;0.90;;;;;;;;;;5043272;28;20215;-68
2022/06/15 02:33:11;;;;;;;0.85;0.85;;;;;;;;;;5049011;28;20277;-69
2022/06/15 02:35:39;;;;;;;1.05;0.95;;;;;;;;;;5049077;28;20208;-69
2022/06/15 02:38:07;;;;;;;1.85;1.10;;;;;;;;;;5048617;28;20289;-69
2022/06/15 02:40:34;;;;;;;3.50;0.82;;;;;;;;;;5049049;28;20208;-68
2022/06/15 02:43:01;;;;;;;1.20;0.90;;;;;;;;;;5048904;28;20720;-68
2022/06/15 02:45:30;;;;;;;0.95;0.95;;;;;;;;;;5048547;28;20203;-68
2022/06/15 02:47:58;;;;;;;1.15;1.15;;;;;;;;;;5048935;28;20200;-68
2022/06/15 02:50:28;;;;;;;1.15;0.85;;;;;;;;;;5048939;28;20208;-68
2022/06/15 02:52:57;;;;;;;0.70;0.70;;;;;;;;;;5048310;28;20227;-68
2022/06/15 02:55:26;;;;;;;0.82;0.80;;;;;;;;;;5047532;28;20239;-69
2022/06/15 02:57:54;;;;;;;0.93;0.93;;;;;;;;;;5048929;28;20613;-68
2022/06/15 03:00:22;;;;;;;1.05;1.05;;;;;;;;;;5048471;28;20257;-68
2022/06/15 03:02:49;;;;;;;5.68;0.95;;;;;;;;;;5047972;28;20669;-68
2022/06/15 03:05:16;;;;;;;0.80;0.80;;;;;;;;;;5048463;28;20279;-68
2022/06/15 03:07:43;;;;;;;0.80;0.80;;;;;;;;;;5047846;28;20231;-68
2022/06/15 03:10:12;;;;;;;0.80;0.80;;;;;;;;;;5048619;28;20207;-68
2022/06/15 03:12:39;;;;;;;1.00;0.90;;;;;;;;;;5048236;28;20227;-68
2022/06/15 03:15:06;;;;;;;0.90;0.90;;;;;;;;;;5048446;28;20258;-68
2022/06/15 03:17:33;;;;;;;2.90;1.20;;;;;;;;;;5047746;28;20208;-68
2022/06/15 03:20:00;;;;;;;1.27;0.97;;;;;;;;;;5048115;28;20195;-69
2022/06/15 03:22:27;;;;;;;0.87;0.87;;;;;;;;;;5048122;28;20211;-69
2022/06/15 03:24:54;;;;;;;2.45;1.00;;;;;;;;;;5046292;28;20622;-68
2022/06/15 03:27:23;;;;;;;0.77;0.77;;;;;;;;;;5039181;28;20207;-68
2022/06/15 03:29:50;;;;;;;0.90;0.90;;;;;;;;;;5047617;28;20551;-69
2022/06/15 03:32:17;;;;;;;0.80;0.80;;;;;;;;;;5047950;28;20334;-69
2022/06/15 03:34:44;;;;;;;2.15;0.80;;;;;;;;;;5048198;28;20207;-68
2022/06/15 03:37:12;;;;;;;0.98;0.80;;;;;;;;;;5047484;28;20924;-69
2022/06/15 03:39:39;;;;;;;1.15;1.15;;;;;;;;;;5051978;28;20203;-69
2022/06/15 03:42:10;;;;;;;1.00;1.00;;;;;;;;;;5052529;28;20230;-69
2022/06/15 03:44:38;;;;;;;2.20;0.98;;;;;;;;;;5051750;28;20203;-69
2022/06/15 03:47:07;;;;;;;2.28;1.10;;;;;;;;;;5052101;28;20257;-68
2022/06/15 03:49:34;;;;;;;0.98;0.70;;;;;;;;;;5052129;28;20203;-69
2022/06/15 03:52:01;;;;;;;1.48;0.95;;;;;;;;;;5051608;28;20219;-69
2022/06/15 03:54:28;;;;;;;3.67;1.23;;;;;;;;;;5050538;28;20239;-70
2022/06/15 03:56:55;;;;;;;0.90;0.90;;;;;;;;;;5051606;28;20223;-68
2022/06/15 03:59:22;;;;;;;2.53;0.82;;;;;;;;;;5051649;28;20253;-67
2022/06/15 04:01:51;;;;;;;1.00;1.00;;;;;;;;;;5051669;28;20288;-68
2022/06/15 04:04:18;;;;;;;1.30;1.17;;;;;;;;;;5051376;28;20559;-67
2022/06/15 04:06:46;;;;;;;0.90;0.90;;;;;;;;;;5051265;28;20204;-68
2022/06/15 04:09:12;;;;;;;2.05;1.10;;;;;;;;;;5051489;28;20199;-68
2022/06/15 04:14:29;;;;;;;0.88;0.88;;;;;;;;;;5047456;28;20206;-68
2022/06/15 04:16:58;;;;;;;1.20;1.20;;;;;;;;;;5051235;28;20290;-68
2022/06/15 04:19:26;;;;;;;1.15;1.05;;;;;;;;;;5051506;28;20333;-68
2022/06/15 04:21:53;;;;;;;1.10;1.10;;;;;;;;;;5051681;28;20204;-68
2022/06/15 04:24:21;;;;;;;1.35;1.20;;;;;;;;;;5051725;28;20195;-68
2022/06/15 04:26:49;;;;;;;1.17;1.10;;;;;;;;;;5051299;28;20199;-68
2022/06/15 04:29:16;;;;;;;1.00;1.00;;;;;;;;;;5051088;28;20690;-68
2022/06/15 04:31:43;;;;;;;0.80;0.80;;;;;;;;;;5051398;28;20881;-68
2022/06/15 04:34:12;;;;;;;2.33;0.88;;;;;;;;;;5051496;28;20235;-68
2022/06/15 04:36:40;;;;;;;0.95;0.90;;;;;;;;;;5051384;28;20250;-68
2022/06/15 04:39:08;;;;;;;2.10;1.42;;;;;;;;;;5051220;28;20207;-68
2022/06/15 04:41:36;;;;;;;1.10;1.10;;;;;;;;;;5051240;28;20230;-68
2022/06/15 04:44:03;;;;;;;1.25;1.23;;;;;;;;;;5050716;28;20203;-68
2022/06/15 04:46:31;;;;;;;0.90;0.90;;;;;;;;;;5050499;28;20227;-68
2022/06/15 04:48:58;;;;;;;0.80;0.80;;;;;;;;;;5050949;28;20265;-68
2022/06/15 04:51:29;;;;;;;1.00;1.00;;;;;;;;;;5050861;28;20265;-68
2022/06/15 04:53:56;;;;;;;2.60;1.08;;;;;;;;;;5050578;28;20227;-68
2022/06/15 04:56:24;;;;;;;1.02;1.00;;;;;;;;;;5047730;28;20729;-68
2022/06/15 04:58:51;;;;;;;1.08;1.08;;;;;;;;;;5050531;28;20195;-68
2022/06/15 05:01:18;;;;;;;0.98;0.98;;;;;;;;;;5050374;28;20211;-68
2022/06/15 05:03:45;;;;;;;0.98;0.98;;;;;;;;;;5050532;28;20980;-68
2022/06/15 05:06:13;;;;;;;1.00;1.00;;;;;;;;;;5050449;28;20233;-69
2022/06/15 05:08:42;;;;;;;1.55;0.90;;;;;;;;;;5050335;28;20261;-69
2022/06/15 05:11:09;;;;;;;0.93;0.70;;;;;;;;;;5049866;28;20626;-69
2022/06/15 05:13:36;;;;;;;0.90;0.90;;;;;;;;;;5050549;28;20281;-69
2022/06/15 05:16:03;;;;;;;1.10;0.90;;;;;;;;;;5050611;28;20207;-69
2022/06/15 05:18:30;;;;;;;0.90;0.90;;;;;;;;;;5050315;28;20204;-68
2022/06/15 05:20:57;;;;;;;0.80;0.80;;;;;;;;;;5050658;28;20216;-68
2022/06/15 05:23:24;;;;;;;2.25;1.23;;;;;;;;;;5049917;28;20211;-68
2022/06/15 05:25:53;;;;;;;1.08;1.08;;;;;;;;;;5044204;28;20613;-67
2022/06/15 05:28:20;;;;;;;0.80;0.80;;;;;;;;;;5045321;28;20257;-68
2022/06/15 05:30:47;;;;;;;1.60;1.13;;;;;;;;;;5049692;28;20256;-68
2022/06/15 05:33:14;;;;;;;1.65;0.68;;;;;;;;;;5048223;28;20239;-68
2022/06/15 05:35:41;;;;;;;1.20;1.00;;;;;;;;;;5035509;28;20618;-68
2022/06/15 05:38:08;;;;;;;1.00;1.00;;;;;;;;;;5044648;28;20257;-69
2022/06/15 05:40:35;;;;;;;1.45;1.15;;;;;;;;;;5049845;28;20200;-69
2022/06/15 05:43:04;;;;;;;1.98;0.70;;;;;;;;;;5049964;28;20211;-67
2022/06/15 05:45:31;;;;;;;1.13;1.05;;;;;;;;;;5046090;28;20236;-68
2022/06/15 05:47:58;;;;;;;82.65;17.52;;;;;;;;;;5049233;28;20208;-68
2022/06/15 05:50:25;;;;;;;1.20;1.02;;;;;;;;;;5049311;28;20611;-71
2022/06/15 05:52:52;;;;;;;1.10;1.00;;;;;;;;;;5048408;28;20232;-71
2022/06/15 05:55:19;;;;;;;0.90;0.90;;;;;;;;;;5040031;28;20792;-70
2022/06/15 05:57:46;;;;;;;1.00;1.00;;;;;;;;;;5041264;28;20216;-69
2022/06/15 06:00:18;;;;;;;1.10;1.00;;;;;;;;;;5048808;28;20300;-71
2022/06/15 06:02:45;;;;;;;0.90;0.90;;;;;;;;;;5046001;28;20292;-71
2022/06/15 06:05:12;;;;;;;1.90;1.10;;;;;;;;;;5032786;28;20212;-71
2022/06/15 06:07:39;;;;;;;0.95;0.90;;;;;;;;;;5049682;28;20574;-70
2022/06/15 06:10:06;;;;;;;3.92;1.15;;;;;;;;;;5049871;28;20214;-70
2022/06/15 06:12:33;;;;;;;1.00;1.00;;;;;;;;;;5047891;28;20208;-71
2022/06/15 06:15:00;;;;;;;1.15;0.93;;;;;;;;;;5048861;28;20234;-73
2022/06/15 06:17:29;;;;;;;0.70;0.70;;;;;;;;;;5040126;28;20689;-72
2022/06/15 06:19:56;;;;;;;1.00;1.00;;;;;;;;;;5049059;28;20662;-73
2022/06/15 06:22:23;;;;;;;1.00;1.00;;;;;;;;;;5049689;28;20685;-72
2022/06/15 06:24:50;;;;;;;1.00;1.00;;;;;;;;;;5049491;28;20625;-72
2022/06/15 06:27:18;;;;;;;1.70;1.20;;;;;;;;;;5049495;28;20281;-72
2022/06/15 06:29:45;;;;;;;1.05;1.05;;;;;;;;;;5049252;28;20643;-71
2022/06/15 06:32:13;;;;;;;1.00;1.00;;;;;;;;;;5049150;28;20215;-71
2022/06/15 06:34:42;;;;;;;1.75;1.23;;;;;;;;;;5048979;28;20228;-72
2022/06/15 06:37:11;;;;;;;1.02;1.02;;;;;;;;;;5046007;28;20207;-72
2022/06/15 06:39:38;;;;;;;1.67;0.98;;;;;;;;;;5049095;28;20199;-71
2022/06/15 06:42:06;;;;;;;1.23;1.10;;;;;;;;;;5045835;28;20799;-71
2022/06/15 06:44:33;;;;;;;1.00;1.00;;;;;;;;;;5049030;28;20203;-70
2022/06/15 06:47:00;;;;;;;1.13;1.00;;;;;;;;;;5048845;28;20204;-71
2022/06/15 06:49:29;;;;;;;1.30;1.20;;;;;;;;;;5048738;28;20643;-72
2022/06/15 06:51:57;;;;;;;1.17;1.17;;;;;;;;;;5049092;28;20204;-70
2022/06/15 06:54:24;;;;;;;1.15;1.02;;;;;;;;;;5048776;28;20305;-70
2022/06/15 06:56:53;;;;;;;1.27;0.95;;;;;;;;;;5048783;28;20242;-70
2022/06/15 06:59:20;;;;;;;3.88;1.10;;;;;;;;;;5049047;28;20215;-71
2022/06/15 07:01:48;;;;;;;1.67;0.90;;;;;;;;;;5048909;28;20218;-72
2022/06/15 07:04:16;;;;;;;1.38;1.27;;;;;;;;;;5047869;28;20274;-71
2022/06/15 07:06:43;;;;;;;1.20;1.20;;;;;;;;;;5048037;28;20208;-71
2022/06/15 07:09:12;;;;;;;4.00;1.20;;;;;;;;;;5047885;28;20724;-72
2022/06/15 07:11:41;;;;;;;1.77;1.67;;;;;;;;;;5047631;28;20265;-70
2022/06/15 07:14:08;;;;;;;1.13;1.02;;;;;;;;;;5047643;28;20243;-72
2022/06/15 07:16:37;;;;;;;1.10;1.10;;;;;;;;;;5048046;28;20207;-71
2022/06/15 07:19:04;;;;;;;2.10;1.10;;;;;;;;;;5048324;28;20208;-71
2022/06/15 07:21:31;;;;;;;1.40;1.30;;;;;;;;;;5047664;28;20257;-77
2022/06/15 07:23:59;;;;;;;1.60;1.52;;;;;;;;;;5048325;28;20232;-75
2022/06/15 07:26:28;;;;;;;1.30;1.30;;;;;;;;;;5047383;28;20232;-71
2022/06/15 07:28:55;;;;;;;1.27;1.20;;;;;;;;;;5047982;28;20215;-75
2022/06/15 07:31:24;;;;;;;1.70;1.30;;;;;;;;;;5048220;28;20265;-73
2022/06/15 07:33:51;;;;;;;2.38;1.35;;;;;;;;;;5047134;28;20663;-78
2022/06/15 07:36:19;;;;;;;2.33;1.40;;;;;;;;;;5048654;28;20204;-80
2022/06/15 07:38:46;;;;;;;2.40;1.50;;;;;;;;;;5047962;28;20211;-80
2022/06/15 07:41:13;;;;;;;1.70;1.33;;;;;;;;;;5048196;28;20372;-77
2022/06/15 07:43:41;;;;;;;2.22;1.45;;;;;;;;;;5048652;28;20204;-67
2022/06/15 07:46:09;;;;;;;1.55;1.45;;;;;;;;;;5048076;28;20196;-75
2022/06/15 07:51:25;;;;;;;2.25;1.30;;;;;;;;;;5033111;28;20273;-80
2022/06/15 07:53:52;;;;;;;2.35;1.23;;;;;;;;;;5046242;28;20289;-79
2022/06/15 07:56:19;;;;;;;1.60;1.50;;;;;;;;;;5048030;28;20250;-84
2022/06/15 07:58:47;;;;;;;1.60;1.40;;;;;;;;;;5048221;28;20212;-86
2022/06/15 08:01:14;;;;;;;1.23;1.20;;;;;;;;;;5048066;28;20779;-81
2022/06/15 08:03:41;;;;;;;1.23;1.23;;;;;;;;;;5047694;28;20207;-83
2022/06/15 08:06:08;;;;;;;1.65;1.63;;;;;;;;;;5048181;28;20208;-81
2022/06/15 08:08:35;;;;;;;1.70;1.60;;;;;;;;;;5046809;28;20204;-72
2022/06/15 08:11:02;;;;;;;1.50;1.38;;;;;;;;;;5039654;28;20702;-77
2022/06/15 08:13:29;;;;;;;1.23;1.23;;;;;;;;;;5027820;28;20294;-78
2022/06/15 08:15:57;;;;;;;1.50;1.50;;;;;;;;;;5041013;28;20262;-80
2022/06/15 08:18:27;;;;;;;3.10;1.25;;;;;;;;;;5047073;28;20204;-77
2022/06/15 08:20:57;;;;;;;1.60;1.60;;;;;;;;;;5047587;28;20211;-77
2022/06/15 08:26:23;;;;;;;1.50;1.50;;;;;;;;;;5034947;28;20698;-80
2022/06/15 08:28:52;;;;;;;1.65;1.52;;;;;;;;;;5051529;28;20212;-81
2022/06/15 08:31:20;;;;;;;1.35;1.30;;;;;;;;;;5048476;28;20219;-77
2022/06/15 08:33:47;;;;;;;1.52;1.50;;;;;;;;;;5049468;28;20281;-78
2022/06/15 08:36:15;;;;;;;1.80;1.70;;;;;;;;;;5050193;28;20204;-78
2022/06/15 08:38:43;;;;;;;2.00;1.80;;;;;;;;;;5050988;28;20224;-77
2022/06/15 08:41:14;;;;;;;1.42;1.33;;;;;;;;;;5050850;28;20212;-78
2022/06/15 08:43:48;;;;;;;1.95;1.77;;;;;;;;;;5051426;28;20658;-78
2022/06/15 08:46:19;;;;;;;1.83;1.50;;;;;;;;;;5050579;28;20440;-77
2022/06/15 08:48:59;;;;;;;1.70;1.48;;;;;;;;;;5050519;28;20294;-78
2022/06/15 08:51:29;;;;;;;1.45;1.45;;;;;;;;;;5049048;28;20195;-78
2022/06/15 08:54:02;;;;;;;1.55;1.45;;;;;;;;;;5050333;28;20223;-77
2022/06/15 08:56:33;;;;;;;1.52;1.52;;;;;;;;;;5050582;28;20243;-77
2022/06/15 08:59:03;;;;;;;1.48;1.42;;;;;;;;;;5050247;28;20213;-78
2022/06/15 09:01:34;;;;;;;1.40;1.30;;;;;;;;;;5049789;28;20203;-77
2022/06/15 09:04:07;;;;;;;1.27;1.27;;;;;;;;;;5050155;28;20196;-77
2022/06/15 09:06:46;;;;;;;1.25;1.25;;;;;;;;;;5047488;28;20309;-79
2022/06/15 09:09:22;;;;;;;3.78;1.73;;;;;;;;;;5039993;28;20222;-78
2022/06/15 09:12:49;;;;;;;1.65;1.55;;;;;;;;;;5050137;28;20261;-77
2022/06/15 09:14:45;;;;;;;1.83;1.73;;;;;;;;;;5049076;28;20223;-77
2022/06/15 09:17:14;;;;;;;1.55;1.50;;;;;;;;;;5050304;28;20216;-78
2022/06/15 09:19:46;;;;;;;1.50;1.50;;;;;;;;;;5049221;28;20203;-78
2022/06/15 09:22:17;;;;;;;1.45;1.45;;;;;;;;;;5049819;28;20234;-76
2022/06/15 09:24:48;;;;;;;1.83;1.73;;;;;;;;;;5036271;28;20718;-78
2022/06/15 09:27:19;;;;;;;1.58;1.48;;;;;;;;;;5049044;28;20208;-72
2022/06/15 09:29:49;;;;;;;1.38;1.38;;;;;;;;;;5044650;28;20203;-78
2022/06/15 09:32:18;;;;;;;1.60;1.60;;;;;;;;;;5049470;28;20215;-80
2022/06/15 09:34:49;;;;;;;1.38;1.35;;;;;;;;;;5048662;28;20219;-74
2022/06/15 09:37:18;;;;;;;1.75;1.65;;;;;;;;;;5051566;28;20203;-83
2022/06/15 09:39:45;;;;;;;1.65;1.55;;;;;;;;;;5050590;28;20215;-83
2022/06/15 09:42:18;;;;;;;1.98;1.90;;;;;;;;;;5048073;28;21035;-83
2022/06/15 09:44:49;;;;;;;2.22;1.77;;;;;;;;;;5047784;28;20208;-82
2022/06/15 09:47:21;;;;;;;1.40;1.40;;;;;;;;;;5045822;28;20212;-79
2022/06/15 09:49:54;;;;;;;1.48;1.48;;;;;;;;;;5051308;28;20207;-81
2022/06/15 09:52:27;;;;;;;1.50;1.50;;;;;;;;;;5045602;28;20216;-81
2022/06/15 09:54:57;;;;;;;2.33;1.40;;;;;;;;;;5036598;28;20243;-80
2022/06/15 09:57:24;;;;;;;3.72;1.58;;;;;;;;;;5061379;28;20640;-80
2022/06/15 09:59:52;;;;;;;1.75;1.65;;;;;;;;;;5061454;28;20207;-80
2022/06/15 10:02:21;;;;;;;2.40;1.77;;;;;;;;;;5060094;28;20577;-81
2022/06/15 10:04:48;;;;;;;1.48;1.48;;;;;;;;;;5057763;28;20208;-81
2022/06/15 10:07:20;;;;;;;1.30;1.30;;;;;;;;;;5056397;28;20234;-81
2022/06/15 10:09:49;;;;;;;1.67;1.67;;;;;;;;;;5052713;28;20833;-81
2022/06/15 10:12:59;;;;;;;2.30;2.00;;;;;;;;;;5047913;28;20208;-80
2022/06/15 10:15:34;;;;;;;2.05;1.88;;;;;;;;;;4996929;28;20646;-82
2022/06/15 10:18:03;;;;;;;1.92;1.92;;;;;;;;;;5043898;28;20723;-79
2022/06/15 10:20:31;;;;;;;2.40;1.65;;;;;;;;;;5045727;28;20211;-79
2022/06/15 10:23:02;;;;;;;1.90;1.80;;;;;;;;;;5048797;28;20257;-81
2022/06/15 10:25:32;;;;;;;2.42;1.55;;;;;;;;;;5049271;28;20207;-78
2022/06/15 10:28:09;;;;;;;2.05;1.55;;;;;;;;;;5048717;28;20294;-79
2022/06/15 10:30:36;;;;;;;1.60;1.50;;;;;;;;;;5048483;28;20253;-81
2022/06/15 10:33:04;;;;;;;2.03;1.92;;;;;;;;;;5046405;28;20277;-79
2022/06/15 10:35:32;;;;;;;1.80;1.60;;;;;;;;;;5048801;28;20228;-81
2022/06/15 10:38:02;;;;;;;2.55;1.52;;;;;;;;;;5049299;28;20660;-82
2022/06/15 10:40:30;;;;;;;1.63;1.60;;;;;;;;;;5048569;28;20308;-80
2022/06/15 10:43:02;;;;;;;2.15;1.35;;;;;;;;;;5048297;28;20204;-83
2022/06/15 10:45:32;;;;;;;2.05;1.88;;;;;;;;;;5048968;28;20666;-81
2022/06/15 10:48:01;;;;;;;3.25;1.70;;;;;;;;;;5048897;28;20212;-81
2022/06/15 10:50:30;;;;;;;2.00;1.90;;;;;;;;;;5048903;28;20216;-81
2022/06/15 10:52:58;;;;;;;1.88;1.65;;;;;;;;;;5048967;28;20236;-78
2022/06/15 11:04:06;;;;;;;1.88;1.77;;;;;;;;;;5048355;28;20210;-79
2022/06/15 11:06:38;;;;;;;2.15;1.70;;;;;;;;;;5048253;28;20266;-80
2022/06/15 11:09:06;;;;;;;1.80;1.70;;;;;;;;;;5048181;28;20215;-81
2022/06/15 11:11:36;;;;;;;1.80;1.80;;;;;;;;;;5049044;28;20290;-81
2022/06/15 11:14:06;;;;;;;3.50;1.98;;;;;;;;;;5047936;28;20208;-81
2022/06/15 11:19:29;;;;;;;1.67;1.67;;;;;;;;;;5034343;28;20264;-82
2022/06/15 11:21:57;;;;;;;1.70;1.70;;;;;;;;;;5047201;28;20210;-72
2022/06/15 11:24:30;;;;;;;2.35;1.73;;;;;;;;;;5046493;28;20207;-76
2022/06/15 11:27:01;;;;;;;2.25;2.05;;;;;;;;;;5047282;28;20204;-74
2022/06/15 11:29:41;;;;;;;2.65;1.70;;;;;;;;;;5045680;28;20224;-73
2022/06/15 11:32:14;;;;;;;1.50;1.50;;;;;;;;;;5045143;28;20290;-72
2022/06/15 11:34:44;;;;;;;4.35;1.45;;;;;;;;;;5047958;28;20227;-70
2022/06/15 11:37:15;;;;;;;1.92;1.83;;;;;;;;;;5047572;28;20204;-68
2022/06/15 11:39:43;;;;;;;1.67;1.67;;;;;;;;;;5047067;28;20208;-68
2022/06/15 11:42:13;;;;;;;1.60;1.60;;;;;;;;;;5045857;28;20207;-70
2022/06/15 11:44:43;;;;;;;1.90;1.80;;;;;;;;;;5047593;28;20208;-72
2022/06/15 11:47:15;;;;;;;1.98;1.88;;;;;;;;;;5047211;28;20713;-70
2022/06/15 11:49:47;;;;;;;1.65;1.65;;;;;;;;;;5047887;28;20215;-72
2022/06/15 11:52:29;;;;;;;1.63;1.55;;;;;;;;;;5048119;28;20212;-70
2022/06/15 11:55:13;;;;;;;1.85;1.75;;;;;;;;;;5048041;28;20253;-70
2022/06/15 11:57:43;;;;;;;1.88;1.77;;;;;;;;;;5039968;28;20893;-73
2022/06/15 12:00:16;;;;;;;1.75;1.70;;;;;;;;;;5047207;28;20281;-72
2022/06/15 12:02:54;;;;;;;2.15;1.95;;;;;;;;;;5039042;28;20208;-73
2022/06/15 12:05:29;;;;;;;2.15;2.05;;;;;;;;;;5042055;28;20214;-75
2022/06/15 12:08:04;;;;;;;1.90;1.80;;;;;;;;;;5042575;28;20282;-69
2022/06/15 12:10:35;;;;;;;1.77;1.77;;;;;;;;;;5045057;28;20822;-68
2022/06/15 12:13:13;;;;;;;1.92;1.80;;;;;;;;;;5035725;28;20261;-67
2022/06/15 12:15:44;;;;;;;1.63;1.63;;;;;;;;;;5044863;28;20431;-73
2022/06/15 12:18:17;;;;;;;1.90;1.80;;;;;;;;;;5047747;28;20271;-73
2022/06/15 12:20:49;;;;;;;2.08;1.85;;;;;;;;;;5048055;28;20706;-73
2022/06/15 12:23:28;;;;;;;1.70;1.70;;;;;;;;;;5047824;28;20223;-73
2022/06/15 12:26:00;;;;;;;1.67;1.63;;;;;;;;;;5047406;28;20234;-74
2022/06/15 12:28:32;;;;;;;2.08;1.90;;;;;;;;;;5022472;28;20212;-73
2022/06/15 12:31:04;;;;;;;1.63;1.63;;;;;;;;;;5034993;28;20294;-74
2022/06/15 12:33:34;;;;;;;1.60;1.60;;;;;;;;;;5027290;28;20219;-74
2022/06/15 12:36:04;;;;;;;1.90;1.80;;;;;;;;;;5046175;28;20318;-74
2022/06/15 12:38:37;;;;;;;1.58;1.52;;;;;;;;;;5046908;28;20269;-74
2022/06/15 12:41:07;;;;;;;1.85;1.75;;;;;;;;;;5036222;28;20215;-68
2022/06/15 12:43:38;;;;;;;1.92;1.83;;;;;;;;;;5027851;28;20219;-70
2022/06/15 12:46:09;;;;;;;1.60;1.60;;;;;;;;;;5044982;28;20214;-71
2022/06/15 12:48:42;;;;;;;1.70;1.60;;;;;;;;;;5045731;28;20298;-70
2022/06/15 12:51:12;;;;;;;1.40;1.40;;;;;;;;;;5031222;28;20212;-70
2022/06/15 12:53:53;;;;;;;1.63;1.63;;;;;;;;;;5033331;28;20606;-70
2022/06/15 12:56:32;;;;;;;1.60;1.60;;;;;;;;;;5044996;28;20238;-69
2022/06/15 12:59:06;;;;;;;1.80;1.70;;;;;;;;;;5044356;28;20203;-71
2022/06/15 13:01:36;;;;;;;2.17;1.83;;;;;;;;;;5047355;28;20673;-69
2022/06/15 13:04:12;;;;;;;1.92;1.83;;;;;;;;;;5039151;28;20204;-69
2022/06/15 13:06:40;;;;;;;1.30;1.30;;;;;;;;;;5046477;28;20887;-70
2022/06/15 13:09:19;;;;;;;1.73;1.67;;;;;;;;;;5046317;28;20268;-69
2022/06/15 13:12:03;;;;;;;3.78;1.80;;;;;;;;;;5032196;28;20673;-70
2022/06/15 13:14:33;;;;;;;1.50;1.40;;;;;;;;;;5028808;28;20223;-70
2022/06/15 13:17:06;;;;;;;1.75;1.65;;;;;;;;;;5046690;28;20211;-70
2022/06/15 13:19:36;;;;;;;5.07;1.70;;;;;;;;;;5042672;28;20293;-70
2022/06/15 13:22:08;;;;;;;1.85;1.60;;;;;;;;;;5044029;28;20256;-69
2022/06/15 13:24:48;;;;;;;1.63;1.52;;;;;;;;;;5046973;28;20211;-69
2022/06/15 13:27:20;;;;;;;1.80;1.70;;;;;;;;;;5045240;28;20214;-69
2022/06/15 13:29:52;;;;;;;1.60;1.45;;;;;;;;;;5045862;28;20207;-68
2022/06/15 13:32:35;;;;;;;1.40;1.40;;;;;;;;;;5046795;28;20215;-69
2022/06/15 13:35:17;;;;;;;1.95;1.83;;;;;;;;;;5030647;28;20665;-69
2022/06/15 13:37:56;;;;;;;1.80;1.60;;;;;;;;;;5030316;28;20694;-70
2022/06/15 13:40:23;;;;;;;1.38;1.38;;;;;;;;;;5040978;28;20212;-73
2022/06/15 13:43:01;;;;;;;1.60;1.50;;;;;;;;;;5038840;28;20321;-68
2022/06/15 13:45:40;;;;;;;1.50;1.50;;;;;;;;;;5032931;28;20772;-68
2022/06/15 13:48:12;;;;;;;1.60;1.60;;;;;;;;;;5044738;28;20385;-68
2022/06/15 13:50:42;;;;;;;1.60;1.60;;;;;;;;;;5042486;28;20288;-68
2022/06/15 13:53:15;;;;;;;1.58;1.58;;;;;;;;;;5042226;28;21030;-68
2022/06/15 13:55:58;;;;;;;1.30;1.30;;;;;;;;;;5035732;28;20310;-68
2022/06/15 13:58:46;;;;;;;1.38;1.38;;;;;;;;;;5039743;28;20219;-68
2022/06/15 14:01:19;;;;;;;1.40;1.40;;;;;;;;;;5043181;28;20200;-68
2022/06/15 14:03:52;;;;;;;3.63;1.40;;;;;;;;;;5043032;28;20211;-71
2022/06/15 14:12:41;;;;;;;3.40;2.25;;;;;;;;;;5031873;28;20794;-71
2022/06/15 14:15:19;;;;;;;1.50;1.50;;;;;;;;;;5026602;28;20219;-71
2022/06/15 14:18:01;;;;;;;1.73;1.63;;;;;;;;;;5044747;28;20207;-70
2022/06/15 14:20:32;;;;;;;1.20;1.20;;;;;;;;;;5029109;28;20210;-71
2022/06/15 14:23:01;;;;;;;1.70;1.60;;;;;;;;;;5043949;28;20215;-71
2022/06/15 14:25:28;;;;;;;1.45;1.35;;;;;;;;;;5041424;28;20641;-70
2022/06/15 14:27:58;;;;;;;1.42;1.33;;;;;;;;;;5044998;28;20265;-70
2022/06/15 14:30:26;;;;;;;3.03;1.30;;;;;;;;;;5044920;28;20199;-70
2022/06/15 14:33:00;;;;;;;1.25;1.25;;;;;;;;;;5044069;28;20296;-70
2022/06/15 14:35:28;;;;;;;2.63;1.20;;;;;;;;;;5044937;28;20291;-71
2022/06/15 14:37:59;;;;;;;1.30;1.30;;;;;;;;;;5044220;28;20242;-71
2022/06/15 14:40:28;;;;;;;1.17;1.17;;;;;;;;;;5044005;28;20244;-71
2022/06/15 14:42:56;;;;;;;1.48;1.27;;;;;;;;;;5044538;28;20210;-71
2022/06/15 14:45:25;;;;;;;1.58;1.48;;;;;;;;;;5044308;28;20269;-71
2022/06/15 14:47:54;;;;;;;1.45;1.35;;;;;;;;;;5044677;28;20211;-70
2022/06/15 14:50:21;;;;;;;1.40;1.30;;;;;;;;;;5045381;28;20361;-71
2022/06/15 14:52:48;;;;;;;1.40;1.40;;;;;;;;;;5043426;28;20592;-71
2022/06/15 14:55:19;;;;;;;1.40;1.23;;;;;;;;;;5045001;28;20266;-72
2022/06/15 14:57:46;;;;;;;1.30;1.20;;;;;;;;;;5043671;28;20199;-72
2022/06/15 15:00:19;;;;;;;2.38;1.40;;;;;;;;;;5033203;28;20227;-68
2022/06/15 15:02:47;;;;;;;1.48;1.48;;;;;;;;;;5035497;28;20206;-68
2022/06/15 15:05:14;;;;;;;1.35;1.25;;;;;;;;;;5040354;28;20211;-69
2022/06/15 15:10:30;;;;;;;1.30;1.27;;;;;;;;;;5039505;28;20248;-69
2022/06/15 15:13:12;;;;;;;1.25;1.25;;;;;;;;;;5037700;28;20221;-69
2022/06/15 15:15:41;;;;;;;2.55;1.50;;;;;;;;;;5035428;28;20552;-70
2022/06/15 15:18:11;;;;;;;1.13;1.13;;;;;;;;;;5044077;28;20218;-70
2022/06/15 15:20:40;;;;;;;1.40;1.40;;;;;;;;;;5045206;28;20199;-71
2022/06/15 15:23:08;;;;;;;1.20;1.20;;;;;;;;;;5045059;28;20365;-70
2022/06/15 15:25:50;;;;;;;2.22;1.33;;;;;;;;;;5045004;28;20256;-70
2022/06/15 15:39:32;;;;;;;1.20;1.10;;;;;;;;;;5048348;28;20237;-70
2022/06/15 15:42:01;;;;;;;2.08;1.35;;;;;;;;;;5048135;28;20215;-69